Waterloo, Wisconsin
Current Conditions -  °F | °C
As of 5:35 PM on Saturday 20 Dec 2014 (Local Time) from KRYV Reporting Station
Haze Haze  
Wind Chill: -2°   Ceiling: 2800
Heat Index: -2°   Visibility: 5mi
Dew Point: -2°   Wind: 0mph
Humidity: 96%   Direction: NA
Pressure: 30.23"   Gusts: NA
Location:  43.18°N, 88.99°W
Report Text: KRYV 202335Z AUTO 00000KT 5SM BR SCT023 BKN028 OVC037 M02/M02 A3023 RMK AO2 T10181023
Loading
Personal Weather Stations






























Interactive Weather Map New forecast layout! Learn more

10-Day Weather Forecast

Advertisements
Track Severe Weather on mobile